aviador You're here:

DABC Decoded Metar

CONSTANTINE in ALGERIA
Report Time2018-06-24 00:30:00
UTC Time2018-06-24 01:03:49
Flight Rules vfr VFR
Wind150° at 03 kt
W.Decomp.*RWY 16: 3.0 kt HW 0.5 kt LCW
RWY 14: 3.0 kt HW 0.5 kt RCW
W.Rank150° ranks 19
Current wind is below 150° avg. (4.4)
Visibility9999 m
Phenomena:N/A
Clouds:N/A
Expected CloudBase > 2,000 ft AGL from Temp-Dew spread
CeilingNone
Temp16°C (ISA +6)
Dew Point11°C (72% RH)
AAT15.2°C
QNH1019 hPa
Density Alt2,907 ft
Elevation2,277 ft
Report Wrong Elevation
Raw Report
DABC 240030Z 15003KT CAVOK 16/11 Q1019=

Extra information for DABC:More info

Metar Taf Metar & Taf Last 4 Metars F.Rules Stats Wind Profile Meteogram Temp Stats Airport Information Weather charts Add Link Nearby VenuesMetar ALERT Operation Metar Decoded Social comments